createdAt,value
2023-05-10T00:01:13.506Z,7.90
2023-05-10T00:03:41.522Z,7.20
2023-05-10T00:06:09.291Z,9.20
2023-05-10T00:08:36.694Z,8.60
2023-05-10T00:11:04.196Z,6.80
2023-05-10T00:13:32.835Z,8.10
2023-05-10T00:16:00.583Z,6.80
2023-05-10T00:18:28.034Z,7.30
2023-05-10T00:20:55.577Z,7.20
2023-05-10T00:23:22.935Z,6.70
2023-05-10T00:25:50.683Z,6.60
2023-05-10T00:28:18.136Z,10.20
2023-05-10T00:30:45.789Z,5.60
2023-05-10T00:33:13.536Z,7.80
2023-05-10T00:35:41.522Z,6.20
2023-05-10T00:38:09.714Z,6.50
2023-05-10T00:40:41.130Z,7.40
2023-05-10T00:43:08.522Z,7.10
2023-05-10T00:45:37.561Z,9.60
2023-05-10T00:48:06.103Z,6.40
2023-05-10T00:50:34.872Z,6.80
2023-05-10T00:53:03.850Z,10.70
2023-05-10T00:55:32.172Z,6.60
2023-05-10T00:57:59.535Z,5.80
2023-05-10T01:00:27.168Z,6.10
2023-05-10T01:02:55.699Z,6.90
2023-05-10T01:05:23.247Z,8.00
2023-05-10T01:07:50.763Z,6.80
2023-05-10T01:10:18.467Z,6.30
2023-05-10T01:12:48.143Z,5.60
2023-05-10T01:15:17.831Z,4.00
2023-05-10T01:17:47.743Z,4.20
2023-05-10T01:20:16.427Z,6.40
2023-05-10T01:23:13.452Z,4.10
2023-05-10T01:26:03.981Z,6.70
2023-05-10T01:28:53.244Z,8.30
2023-05-10T01:32:04.202Z,7.30
2023-05-10T01:34:41.806Z,5.90
2023-05-10T01:37:22.305Z,4.70
2023-05-10T01:40:11.386Z,5.40
2023-05-10T01:43:04.122Z,7.30
2023-05-10T01:46:02.381Z,5.50
2023-05-10T01:48:31.356Z,4.70
2023-05-10T01:50:59.555Z,4.00
2023-05-10T01:53:28.796Z,4.80
2023-05-10T01:55:57.524Z,3.80
2023-05-10T01:58:31.673Z,4.40
2023-05-10T02:01:02.929Z,4.70
2023-05-10T02:06:00.597Z,4.90
2023-05-10T02:08:28.753Z,5.50
2023-05-10T02:10:58.075Z,4.50
2023-05-10T02:13:28.113Z,6.70
2023-05-10T02:15:58.087Z,8.30
2023-05-10T02:18:27.967Z,5.10
2023-05-10T02:20:57.069Z,4.90
2023-05-10T02:23:25.392Z,5.70
2023-05-10T02:25:55.268Z,3.30
2023-05-10T02:28:24.863Z,4.80
2023-05-10T02:30:54.456Z,6.70
2023-05-10T02:33:23.351Z,6.80
2023-05-10T02:35:52.553Z,3.60
2023-05-10T02:38:22.702Z,6.10
2023-05-10T02:40:50.175Z,5.10
2023-05-10T02:43:19.525Z,7.50
2023-05-10T02:45:49.182Z,4.10
2023-05-10T02:48:17.557Z,4.50
2023-05-10T02:50:46.580Z,6.50
2023-05-10T02:53:24.719Z,4.90
2023-05-10T02:55:53.866Z,4.30
2023-05-10T02:58:22.006Z,3.40
2023-05-10T03:00:49.336Z,6.60
2023-05-10T03:03:16.816Z,4.40
2023-05-10T03:05:44.226Z,3.50
2023-05-10T03:08:11.755Z,5.30
2023-05-10T03:11:46.476Z,6.70
2023-05-10T03:14:51.279Z,3.80
2023-05-10T03:17:32.175Z,5.40
2023-05-10T03:20:08.736Z,5.30
2023-05-10T03:22:41.529Z,4.10
2023-05-10T03:25:12.043Z,5.10
2023-05-10T03:27:43.209Z,3.20
2023-05-10T03:30:15.353Z,6.50
2023-05-10T03:32:42.944Z,5.70
2023-05-10T03:35:12.661Z,3.40
2023-05-10T03:37:40.618Z,4.90
2023-05-10T03:40:11.124Z,4.60
2023-05-10T03:42:38.567Z,3.60
2023-05-10T03:45:07.391Z,6.60
2023-05-10T03:47:34.792Z,5.10
2023-05-10T03:50:03.494Z,4.30
2023-05-10T03:52:30.972Z,3.50
2023-05-10T03:54:58.302Z,5.90
2023-05-10T03:57:25.693Z,4.80
2023-05-10T03:59:53.081Z,4.50
2023-05-10T04:02:20.611Z,5.90
2023-05-10T04:04:48.130Z,4.10
2023-05-10T04:07:15.671Z,3.30
2023-05-10T04:09:43.245Z,3.80
2023-05-10T04:12:11.187Z,6.30
2023-05-10T04:14:38.847Z,5.40
2023-05-10T04:17:06.823Z,5.10
2023-05-10T04:19:34.702Z,5.40
2023-05-10T04:22:04.084Z,7.50
2023-05-10T04:24:31.582Z,11.10
2023-05-10T04:26:59.050Z,4.70
2023-05-10T04:29:26.996Z,5.30
2023-05-10T04:31:54.543Z,5.80
2023-05-10T04:34:22.503Z,5.60
2023-05-10T04:36:49.906Z,5.20
2023-05-10T04:39:17.225Z,3.30
2023-05-10T04:41:44.868Z,5.50
2023-05-10T04:44:12.337Z,4.50
2023-05-10T04:46:39.976Z,3.60
2023-05-10T04:49:07.392Z,3.60
2023-05-10T04:51:34.813Z,3.20
2023-05-10T04:54:06.656Z,3.60
2023-05-10T04:56:34.558Z,5.80
2023-05-10T04:59:02.435Z,7.20
2023-05-10T05:01:29.810Z,5.40
2023-05-10T05:03:57.302Z,5.80
2023-05-10T05:06:26.142Z,6.00
2023-05-10T05:08:54.006Z,4.70
2023-05-10T05:11:22.153Z,5.70
2023-05-10T05:13:49.579Z,7.00
2023-05-10T05:16:16.939Z,9.80
2023-05-10T05:18:44.515Z,8.10
2023-05-10T05:21:20.104Z,6.30
2023-05-10T05:23:48.643Z,5.30
2023-05-10T05:26:16.302Z,8.20
2023-05-10T05:28:43.695Z,6.20
2023-05-10T05:31:11.276Z,6.20
2023-05-10T05:33:39.340Z,7.70
2023-05-10T05:36:07.352Z,5.00
2023-05-10T05:38:34.715Z,9.00
2023-05-10T05:41:02.648Z,5.50
2023-05-10T05:43:30.775Z,8.10
2023-05-10T05:45:59.256Z,7.60
2023-05-10T05:48:27.013Z,7.80
2023-05-10T05:50:58.800Z,7.70
2023-05-10T05:53:26.339Z,9.30
2023-05-10T05:55:59.778Z,10.80
2023-05-10T05:58:27.175Z,6.20
2023-05-10T06:00:55.278Z,10.40
2023-05-10T06:03:23.023Z,11.10
2023-05-10T06:05:50.654Z,9.40
2023-05-10T06:08:18.244Z,8.20
2023-05-10T06:10:46.533Z,9.20
2023-05-10T06:13:14.101Z,9.10
2023-05-10T06:15:41.829Z,10.30
2023-05-10T06:18:09.392Z,12.10
2023-05-10T06:20:37.213Z,8.00
2023-05-10T06:23:04.724Z,8.40
2023-05-10T06:25:32.256Z,15.00
2023-05-10T06:27:59.638Z,13.10
2023-05-10T06:30:30.188Z,8.00
2023-05-10T06:32:58.265Z,8.10
2023-05-10T06:35:26.081Z,5.90
2023-05-10T06:37:53.866Z,6.30
2023-05-10T06:40:21.504Z,6.00
2023-05-10T06:42:49.345Z,7.40
2023-05-10T06:45:17.514Z,6.80
2023-05-10T06:47:45.401Z,9.80
2023-05-10T06:50:13.037Z,9.60
2023-05-10T06:52:40.833Z,12.30
2023-05-10T06:55:09.926Z,9.80
2023-05-10T06:57:37.348Z,10.30
2023-05-10T07:00:05.965Z,11.80
2023-05-10T07:02:33.869Z,10.50
2023-05-10T07:05:03.141Z,9.40
2023-05-10T07:07:31.044Z,10.00
2023-05-10T07:09:58.878Z,11.00
2023-05-10T07:12:26.658Z,9.50
2023-05-10T07:14:54.408Z,8.40
2023-05-10T07:17:21.936Z,13.40
2023-05-10T07:19:49.585Z,9.90
2023-05-10T07:22:17.946Z,11.00
2023-05-10T07:24:45.413Z,10.40
2023-05-10T07:27:13.937Z,7.50
2023-05-10T07:29:41.699Z,9.30
2023-05-10T07:32:09.215Z,8.70
2023-05-10T07:34:36.932Z,8.70
2023-05-10T07:37:04.374Z,10.90
2023-05-10T07:39:31.745Z,6.50
2023-05-10T07:41:59.181Z,8.80
2023-05-10T07:44:26.922Z,8.80
2023-05-10T07:46:54.404Z,11.60
2023-05-10T07:49:21.735Z,9.20
2023-05-10T07:51:49.623Z,7.80
2023-05-10T07:54:17.586Z,10.20
2023-05-10T07:56:48.150Z,11.60
2023-05-10T07:59:18.060Z,8.40
2023-05-10T08:01:46.253Z,7.80
2023-05-10T08:04:13.827Z,7.50
2023-05-10T08:06:41.803Z,9.30
2023-05-10T08:09:10.548Z,12.10
2023-05-10T08:11:38.325Z,11.00
2023-05-10T08:14:05.951Z,16.30
2023-05-10T08:16:33.640Z,13.30
2023-05-10T08:19:01.120Z,12.70
2023-05-10T08:21:28.716Z,10.90
2023-05-10T08:23:56.483Z,11.80
2023-05-10T08:26:23.829Z,13.30
2023-05-10T08:28:51.219Z,11.40
2023-05-10T08:31:19.239Z,12.50
2023-05-10T08:33:46.744Z,12.60
2023-05-10T08:36:16.312Z,11.70
2023-05-10T08:38:43.680Z,11.40
2023-05-10T08:41:12.505Z,12.30
2023-05-10T08:43:42.557Z,9.30
2023-05-10T08:46:11.210Z,10.60
2023-05-10T08:48:40.091Z,11.30
2023-05-10T08:51:09.240Z,13.80
2023-05-10T08:53:38.111Z,12.20
2023-05-10T08:56:06.629Z,11.60
2023-05-10T08:58:34.352Z,12.20
2023-05-10T09:01:02.240Z,10.50
2023-05-10T09:03:31.071Z,14.00
2023-05-10T09:05:58.436Z,11.80
2023-05-10T09:08:27.511Z,16.00
2023-05-10T09:10:56.487Z,15.20
2023-05-10T09:13:25.820Z,17.00
2023-05-10T09:15:54.156Z,18.70
2023-05-10T09:18:21.687Z,15.20
2023-05-10T09:20:50.430Z,16.40
2023-05-10T09:23:17.709Z,20.70
2023-05-10T09:25:45.164Z,18.20
2023-05-10T09:28:13.212Z,16.50
2023-05-10T09:30:40.772Z,15.70
2023-05-10T09:33:08.890Z,20.80
2023-05-10T09:35:37.117Z,23.30
2023-05-10T09:38:06.300Z,21.10
2023-05-10T09:40:33.782Z,14.70
2023-05-10T09:43:05.505Z,19.70
2023-05-10T09:45:38.266Z,18.30
2023-05-10T09:48:07.176Z,18.00
2023-05-10T09:50:35.382Z,18.00
2023-05-10T09:53:04.928Z,21.00
2023-05-10T09:55:47.616Z,21.40
2023-05-10T09:58:15.474Z,16.50
2023-05-10T10:00:45.939Z,17.80
2023-05-10T10:03:21.868Z,17.80
2023-05-10T10:05:50.195Z,21.80
2023-05-10T10:08:18.843Z,14.90
2023-05-10T10:10:47.674Z,17.10
2023-05-10T10:13:16.565Z,14.30
2023-05-10T10:15:45.646Z,21.50
2023-05-10T10:18:16.730Z,17.00
2023-05-10T10:20:44.854Z,23.50
2023-05-10T10:23:12.232Z,14.80
2023-05-10T10:25:40.389Z,21.60
2023-05-10T10:28:35.973Z,23.20
2023-05-10T10:31:28.962Z,20.30
2023-05-10T10:34:12.292Z,21.70
2023-05-10T10:36:49.485Z,23.60
2023-05-10T10:39:17.004Z,22.40
2023-05-10T10:41:57.367Z,20.40
2023-05-10T10:44:37.876Z,21.20
2023-05-10T10:47:34.731Z,16.00
2023-05-10T10:50:02.063Z,24.90
2023-05-10T10:52:34.625Z,20.90
2023-05-10T10:55:12.305Z,23.70
2023-05-10T10:58:01.849Z,21.30
2023-05-10T11:00:34.582Z,21.60
2023-05-10T11:03:12.942Z,20.20
2023-05-10T11:05:45.258Z,15.40
2023-05-10T11:08:25.486Z,21.60
2023-05-10T11:11:03.204Z,15.40
2023-05-10T11:13:43.953Z,17.30
2023-05-10T11:16:18.878Z,16.40
2023-05-10T11:19:09.380Z,19.20
2023-05-10T11:21:51.500Z,20.70
2023-05-10T11:24:23.073Z,11.90
2023-05-10T11:26:54.731Z,14.90
2023-05-10T11:29:22.228Z,19.70
2023-05-10T11:31:51.782Z,17.70
2023-05-10T11:34:35.922Z,12.00
2023-05-10T11:37:03.528Z,16.10
2023-05-10T11:39:32.895Z,19.10
2023-05-10T11:42:01.285Z,17.10
2023-05-10T11:44:35.055Z,13.30
2023-05-10T11:47:04.261Z,15.10
2023-05-10T11:49:32.004Z,16.30
2023-05-10T11:52:09.644Z,15.60
2023-05-10T11:54:37.126Z,12.20
2023-05-10T11:57:05.215Z,17.20
2023-05-10T11:59:32.591Z,11.90
2023-05-10T12:02:00.440Z,14.50
2023-05-10T12:04:30.557Z,18.70
2023-05-10T12:06:58.377Z,16.20
2023-05-10T12:09:39.421Z,13.20
2023-05-10T12:12:11.274Z,11.60
2023-05-10T12:14:38.664Z,15.50
2023-05-10T12:17:06.195Z,11.60
2023-05-10T12:19:40.532Z,13.40
2023-05-10T12:22:07.953Z,12.40
2023-05-10T12:24:37.446Z,11.20
2023-05-10T12:30:08.024Z,9.70
2023-05-10T12:32:40.916Z,13.70
2023-05-10T12:35:09.818Z,11.80
2023-05-10T12:37:40.225Z,8.50
2023-05-10T12:40:10.384Z,9.90
2023-05-10T12:42:39.514Z,12.50
2023-05-10T12:45:09.104Z,11.80
2023-05-10T12:47:37.149Z,12.40
2023-05-10T12:50:06.209Z,13.90
2023-05-10T12:52:33.745Z,12.90
2023-05-10T12:55:01.777Z,12.00
2023-05-10T12:57:29.212Z,14.50
2023-05-10T12:59:56.690Z,12.30
2023-05-10T13:02:24.221Z,10.40
2023-05-10T13:04:51.708Z,9.20
2023-05-10T13:07:19.135Z,12.00
2023-05-10T13:09:46.510Z,13.00
2023-05-10T13:12:13.805Z,12.40
2023-05-10T13:14:41.627Z,11.00
2023-05-10T13:17:09.180Z,18.10
2023-05-10T13:19:36.619Z,11.90
2023-05-10T13:22:04.280Z,10.90
2023-05-10T13:24:31.609Z,14.70
2023-05-10T13:26:59.286Z,12.80
2023-05-10T13:29:26.738Z,10.40
2023-05-10T13:31:54.124Z,16.90
2023-05-10T13:34:21.685Z,12.10
2023-05-10T13:36:49.943Z,11.60
2023-05-10T13:39:17.845Z,16.80
2023-05-10T13:41:45.227Z,15.60
2023-05-10T13:44:15.073Z,15.20
2023-05-10T13:46:43.450Z,15.90
2023-05-10T13:49:10.909Z,15.80
2023-05-10T13:51:38.465Z,14.20
2023-05-10T13:54:06.052Z,15.80
2023-05-10T13:56:33.794Z,17.00
2023-05-10T13:59:01.835Z,12.10
2023-05-10T14:01:29.171Z,10.50
2023-05-10T14:03:56.577Z,11.20
2023-05-10T14:06:23.896Z,12.90
2023-05-10T14:08:51.276Z,14.10
2023-05-10T14:11:18.851Z,15.40
2023-05-10T14:13:46.590Z,13.00
2023-05-10T14:16:15.775Z,15.30
2023-05-10T14:18:43.276Z,16.50
2023-05-10T14:21:10.609Z,17.30
2023-05-10T14:23:37.891Z,12.00
2023-05-10T14:26:05.408Z,12.20
2023-05-10T14:28:33.146Z,14.80
2023-05-10T14:31:00.571Z,15.30
2023-05-10T14:33:28.065Z,12.00
2023-05-10T14:35:57.457Z,15.80
2023-05-10T14:38:25.078Z,14.10
2023-05-10T14:40:52.412Z,12.00
2023-05-10T14:43:19.749Z,16.10
2023-05-10T14:45:47.605Z,14.80
2023-05-10T14:48:18.401Z,11.30
2023-05-10T14:50:47.113Z,11.30
2023-05-10T14:53:14.438Z,11.90
2023-05-10T14:55:41.932Z,17.40
2023-05-10T14:58:09.320Z,11.40
2023-05-10T15:00:36.683Z,11.40
2023-05-10T15:03:04.774Z,14.30
2023-05-10T15:05:32.655Z,18.60
2023-05-10T15:08:00.299Z,17.70
2023-05-10T15:10:28.222Z,10.30
2023-05-10T15:12:56.178Z,13.90
2023-05-10T15:15:23.543Z,14.70
2023-05-10T15:17:51.036Z,13.50
2023-05-10T15:20:18.667Z,12.00
2023-05-10T15:22:45.971Z,12.00
2023-05-10T15:25:15.436Z,14.20
2023-05-10T15:27:44.681Z,14.70
2023-05-10T15:30:13.218Z,13.70
2023-05-10T15:32:41.541Z,11.10
2023-05-10T15:35:10.625Z,14.40
2023-05-10T15:37:38.991Z,12.10
2023-05-10T15:40:07.773Z,17.00
2023-05-10T15:42:35.203Z,12.20
2023-05-10T15:45:02.569Z,15.30
2023-05-10T15:47:31.190Z,12.20
2023-05-10T15:49:58.894Z,19.70
2023-05-10T15:52:26.618Z,12.40
2023-05-10T15:54:54.292Z,9.90
2023-05-10T15:57:21.680Z,9.10
2023-05-10T15:59:49.416Z,8.00
2023-05-10T16:02:18.442Z,7.50
2023-05-10T16:04:45.902Z,8.80
2023-05-10T16:07:13.263Z,6.00
2023-05-10T16:09:41.394Z,7.60
2023-05-10T16:12:08.847Z,7.60
2023-05-10T16:14:36.314Z,9.20
2023-05-10T16:17:04.747Z,8.30
2023-05-10T16:19:32.472Z,6.70
2023-05-10T16:21:59.991Z,11.50
2023-05-10T16:24:27.462Z,9.10
2023-05-10T16:26:54.867Z,5.00
2023-05-10T16:29:22.387Z,8.30
2023-05-10T16:31:49.740Z,6.50
2023-05-10T16:34:17.116Z,4.80
2023-05-10T16:36:44.549Z,6.40
2023-05-10T16:39:11.900Z,8.00
2023-05-10T16:41:39.256Z,10.00
2023-05-10T16:44:06.910Z,7.60
2023-05-10T16:46:34.565Z,8.00
2023-05-10T16:49:02.130Z,10.60
2023-05-10T16:51:29.607Z,8.00
2023-05-10T16:53:56.987Z,10.70
2023-05-10T16:56:24.511Z,8.80
2023-05-10T16:58:52.191Z,7.80
2023-05-10T17:01:19.998Z,8.00
2023-05-10T17:03:47.467Z,6.80
2023-05-10T17:06:15.152Z,9.00
2023-05-10T17:08:42.583Z,8.50
2023-05-10T17:11:09.958Z,5.10
2023-05-10T17:13:38.861Z,9.50
2023-05-10T17:16:07.000Z,6.60
2023-05-10T17:18:34.619Z,7.60
2023-05-10T17:21:02.154Z,7.60
2023-05-10T17:23:30.554Z,9.20
2023-05-10T17:26:00.139Z,8.20
2023-05-10T17:28:29.045Z,8.70
2023-05-10T17:30:59.744Z,7.00
2023-05-10T17:33:27.160Z,10.80
2023-05-10T17:35:56.387Z,11.30
2023-05-10T17:38:23.972Z,8.40
2023-05-10T17:40:51.735Z,7.70
2023-05-10T17:43:20.174Z,7.40
2023-05-10T17:45:49.890Z,11.40
2023-05-10T17:48:17.600Z,10.20
2023-05-10T17:50:44.980Z,7.10
2023-05-10T17:53:12.400Z,7.70
2023-05-10T17:55:41.629Z,9.40
2023-05-10T17:58:11.962Z,9.80
2023-05-10T18:00:39.596Z,11.80
2023-05-10T18:03:07.158Z,12.10
2023-05-10T18:05:39.459Z,8.60
2023-05-10T18:08:07.690Z,8.70
2023-05-10T18:10:37.389Z,10.90
2023-05-10T18:15:36.172Z,12.20
2023-05-10T18:18:04.998Z,10.20
2023-05-10T18:20:32.767Z,7.70
2023-05-10T18:23:00.219Z,6.60
2023-05-10T18:25:27.942Z,7.50
2023-05-10T18:27:55.648Z,6.50
2023-05-10T18:30:23.161Z,7.60
2023-05-10T18:32:50.590Z,8.20
2023-05-10T18:35:19.040Z,9.50
2023-05-10T18:37:46.564Z,9.00
2023-05-10T18:40:14.754Z,9.00
2023-05-10T18:42:42.259Z,9.20
2023-05-10T18:45:09.867Z,7.80
2023-05-10T18:47:37.249Z,7.30
2023-05-10T18:50:05.694Z,8.40
2023-05-10T18:52:33.345Z,9.90
2023-05-10T18:55:01.347Z,9.80
2023-05-10T18:57:29.017Z,10.10
2023-05-10T18:59:56.675Z,9.20
2023-05-10T19:02:25.423Z,7.40
2023-05-10T19:04:53.160Z,10.60
2023-05-10T19:07:21.315Z,8.60
2023-05-10T19:09:48.645Z,7.60
2023-05-10T19:12:16.013Z,8.60
2023-05-10T19:14:43.356Z,7.40
2023-05-10T19:17:13.253Z,9.80
2023-05-10T19:19:41.020Z,7.60
2023-05-10T19:22:09.370Z,7.50
2023-05-10T19:24:37.216Z,8.50
2023-05-10T19:27:04.961Z,9.30
2023-05-10T19:29:32.430Z,10.10
2023-05-10T19:32:00.928Z,11.20
2023-05-10T19:34:28.458Z,9.80
2023-05-10T19:36:57.263Z,11.90
2023-05-10T19:39:25.454Z,10.10
2023-05-10T19:41:54.425Z,10.30
2023-05-10T19:44:23.869Z,12.40
2023-05-10T19:46:51.423Z,11.30
2023-05-10T19:49:18.935Z,7.40
2023-05-10T19:51:46.574Z,10.70
2023-05-10T19:54:13.889Z,10.10
2023-05-10T19:56:41.219Z,7.70
2023-05-10T19:59:09.305Z,8.40
2023-05-10T20:01:37.162Z,7.60
2023-05-10T20:04:04.807Z,12.40
2023-05-10T20:06:33.148Z,9.30
2023-05-10T20:09:00.759Z,12.30
2023-05-10T20:11:28.228Z,10.70
2023-05-10T20:13:55.698Z,11.30
2023-05-10T20:16:25.072Z,9.50
2023-05-10T20:18:54.642Z,9.60
2023-05-10T20:21:22.768Z,9.80
2023-05-10T20:23:50.081Z,9.80
2023-05-10T20:26:17.431Z,10.30
2023-05-10T20:28:44.921Z,9.00
2023-05-10T20:31:12.388Z,9.00
2023-05-10T20:33:39.838Z,7.70
2023-05-10T20:36:09.753Z,9.90
2023-05-10T20:38:37.167Z,9.70
2023-05-10T20:41:04.566Z,10.40
2023-05-10T20:43:32.122Z,11.10
2023-05-10T20:46:05.443Z,7.60
2023-05-10T20:48:33.259Z,12.70
2023-05-10T20:51:02.257Z,11.40
2023-05-10T20:53:30.154Z,9.70
2023-05-10T20:55:57.510Z,9.70
2023-05-10T20:58:24.976Z,8.20
2023-05-10T21:00:52.550Z,9.50
2023-05-10T21:03:19.897Z,7.40
2023-05-10T21:05:47.403Z,6.90
2023-05-10T21:08:14.730Z,6.60
2023-05-10T21:10:42.091Z,8.00
2023-05-10T21:13:09.800Z,8.40
2023-05-10T21:15:37.178Z,9.10
2023-05-10T21:18:05.607Z,8.00
2023-05-10T21:20:33.053Z,10.50
2023-05-10T21:23:00.418Z,6.20
2023-05-10T21:25:27.915Z,7.80
2023-05-10T21:27:55.994Z,8.40
2023-05-10T21:30:23.466Z,8.20
2023-05-10T21:32:51.114Z,7.90
2023-05-10T21:35:18.660Z,6.40
2023-05-10T21:37:46.048Z,8.50
2023-05-10T21:40:13.667Z,10.30
2023-05-10T21:42:41.050Z,11.10
2023-05-10T21:45:08.673Z,8.60
2023-05-10T21:47:36.388Z,9.00
2023-05-10T21:50:04.095Z,7.60
2023-05-10T21:52:31.440Z,5.50
2023-05-10T21:54:58.837Z,8.70
2023-05-10T21:57:26.465Z,7.50
2023-05-10T21:59:53.938Z,10.20
2023-05-10T22:02:21.296Z,7.50
2023-05-10T22:04:49.092Z,8.60
2023-05-10T22:07:17.093Z,12.10
2023-05-10T22:09:44.678Z,8.10
2023-05-10T22:12:13.023Z,8.90
2023-05-10T22:14:40.514Z,8.40
2023-05-10T22:17:08.255Z,10.80
2023-05-10T22:19:36.036Z,11.50
2023-05-10T22:22:03.695Z,8.50
2023-05-10T22:24:31.870Z,8.90
2023-05-10T22:26:59.325Z,8.10
2023-05-10T22:29:26.671Z,12.50
2023-05-10T22:31:54.069Z,7.70
2023-05-10T22:34:21.441Z,10.20
2023-05-10T22:36:50.495Z,8.40
2023-05-10T22:39:17.944Z,9.30
2023-05-10T22:41:45.597Z,12.30
2023-05-10T22:44:12.972Z,10.90
2023-05-10T22:46:40.314Z,9.30
2023-05-10T22:49:08.208Z,10.80
2023-05-10T22:51:35.656Z,9.20
2023-05-10T22:54:03.104Z,16.30
2023-05-10T22:56:31.404Z,11.50
2023-05-10T22:58:58.874Z,8.00
2023-05-10T23:01:26.281Z,7.00
2023-05-10T23:03:53.761Z,8.90
2023-05-10T23:06:21.107Z,8.90
2023-05-10T23:08:49.365Z,7.90
2023-05-10T23:11:16.717Z,9.20
2023-05-10T23:13:44.667Z,8.30
2023-05-10T23:16:12.171Z,9.70
2023-05-10T23:18:39.750Z,8.90
2023-05-10T23:21:07.357Z,10.50
2023-05-10T23:23:34.881Z,9.30
2023-05-10T23:26:02.373Z,9.10
2023-05-10T23:28:29.760Z,10.80
2023-05-10T23:30:58.889Z,11.00
2023-05-10T23:33:27.006Z,9.40
2023-05-10T23:35:55.299Z,11.10
2023-05-10T23:38:22.738Z,12.60
2023-05-10T23:40:51.002Z,8.40
2023-05-10T23:43:19.802Z,11.30
2023-05-10T23:45:55.765Z,10.10
2023-05-10T23:48:24.152Z,8.30
2023-05-10T23:50:52.002Z,9.60
2023-05-10T23:53:19.460Z,9.90
2023-05-10T23:55:46.888Z,10.40
2023-05-10T23:58:14.570Z,11.80
